Historyczne dane pomiarowe

Dodano dane terminowe – wersja testowa.

Dane z okresu 1951-2019

Wersja bazy: 1.34 [2019-03-16, lista zmian], aktualizacja planowana na 2019-04-15

Dane meteo z obszaru Polski uzyskane na podstawie danych udostępnionych przez Instytut Meteorologii i Gospodarki Wodnej – Państwowy Instytut Badawczy.

 

Wybierz Datę:    

       

TemperaturaWilgotnośćWiatrCiśnienieOpadyŚniegCzas trwania zjawisk
 Stacja t tx tn tng RH VA  wxwx mslp ppp RRR   cm mm wxwxwxwxwxwxwx
1994-08-14 14.7 17.4 11.7- 78.8- 7.0 3.0---- 2.4------------
1994-08-13 17.3 22.6 14.5- 87.8- 6.7 2.0---- 3.7------------
1994-08-12 17.5 24.0 11.0- 78.5- 6.0 1.3---- 0.0------------
1994-08-11 19.2 24.4 11.2- 70.3- 2.3 0.3---- 0.0------------
1994-08-10 19.3 24.9 15.5- 74.8- 4.0 0.3---- 0.0------------
1994-08-09 18.5 24.9 11.5- 90.0- 7.0 1.0---- 8.5------------
1994-08-08 18.4 23.9 14.2- 90.3- 7.0 0.0---- 1.7------------
1994-08-07 22.6 27.9 19.0- 73.5- 5.0 0.3---- 0.0------------
1994-08-06 25.4 32.9 17.0- 61.5- 1.0 1.3---- 0.0------------
1994-08-05 24.5 31.9 15.0- 70.0- 2.0 1.0---- 0.0------------
1994-08-04 24.1 31.1 17.6- 72.8- 1.0 0.7---- 0.0------------
1994-08-03 23.4 27.7 17.0- 77.0- 1.0 1.3---- 0.0------------
1994-08-02 25.0 32.4 16.5- 69.5- 3.0 1.0---- 0.0------------
1994-08-01 26.3 34.5 16.5- 64.5- 3.3 1.7---- 11.0------------
1994-07-31 26.4 35.3 16.7- 59.3- 1.0 1.0---- 0.0------------
1994-07-30 26.4 34.4 15.5- 57.5- 1.0 0.7---- 0.0------------
1994-07-29 26.1 33.8 15.0- 60.3- 1.0 1.3---- 0.0------------
1994-07-28 23.9 33.0 14.5- 55.8- 1.0 1.0---- 0.0------------
1994-07-27 23.5 32.0 13.5- 62.3- 1.0 1.0---- 0.0------------
1994-07-26 22.5 30.9 14.0- 62.0- 1.3 1.3---- 0.0------------
1994-07-25 22.7 30.1 12.0- 66.8- 1.0 1.0---- 0.0------------
1994-07-24 21.8 29.0 12.2- 59.3- 1.0 1.0---- 0.0------------
1994-07-23 21.1 27.5 13.1- 64.8- 2.0 1.7---- 0.0------------
1994-07-22 19.5 26.9 11.5- 70.3- 2.0 0.3---- 0.0------------
1994-07-21 19.9 26.4 12.0- 58.5- 3.0 2.3---- 0.0------------
1994-07-20 16.8 22.4 9.4- 70.8- 5.0 1.7---- 0.0------------
1994-07-19 17.1 22.2 10.0- 67.3- 4.0 2.3---- 0.0------------
1994-07-18 17.6 24.9 11.0- 69.5- 1.0 2.0---- 0.0------------
1994-07-17 21.2 26.3 17.8- 76.0- 2.7 2.0---- 0.0------------
1994-07-16 24.1 31.4 14.5- 68.8- 1.3 1.3---- 0.0------------
1994-07-15 24.2 30.9 15.0- 63.3- 1.0 1.0---- 0.0------------
1994-07-14 24.2 30.4 18.5- 64.3- 1.0 1.0---- 0.0------------
1994-07-13 24.6 31.0 15.5- 65.8- 1.0 0.7---- 0.0------------
1994-07-12 23.8 30.6 12.5- 62.5- 1.0 0.7---- 0.0------------
1994-07-11 21.8 27.4 12.5- 68.3- 1.0 0.7---- 0.0------------
1994-07-10 19.2 23.5 11.5- 78.0- 4.0 1.0---- 0.1------------
1994-07-09 15.8 20.0 9.4- 83.8- 7.0 0.0---- 0.0------------
1994-07-08 17.3 25.9 8.9- 83.8- 6.3 1.0---- 4.4------------
1994-07-07 17.0 24.3 8.9- 73.0- 2.0 1.0---- 0.0------------
1994-07-06 17.0 22.1 8.4- 69.3- 1.0 1.0---- 0.0------------
1994-07-05 18.2 23.6 10.1- 70.0- 1.0 1.3---- 0.0------------
1994-07-04 19.2 25.1 12.0- 71.5- 3.0 1.0---- 0.0------------
1994-07-03 16.7 22.4 9.4- 69.5- 3.0 1.7---- 0.0------------
1994-07-02 16.1 21.0 9.4- 69.0- 3.0 1.0---- 0.0------------
1994-07-01 15.6 20.1 9.9- 79.3- 4.0 1.3---- 0.0------------
1994-06-30 18.8 24.9 13.5- 85.3- 5.0 2.0---- 2.4------------
1994-06-29 20.2 26.6 12.5- 72.0- 2.0 2.0---- 0.0------------
1994-06-28 18.5 25.0 10.4- 75.5- 3.0 1.7---- 0.0------------
1994-06-27 20.3 24.9 14.5- 73.5- 3.0 2.0---- 0.0------------
1994-06-26 20.1 26.1 10.4- 69.0- 2.0 2.0---- 0.0------------
1994-06-25 15.4 21.3 8.9- 73.0- 1.0 1.7---- 0.0------------
1994-06-24 11.9 14.9 7.9- 73.0- 4.0 6.0---- 0.0------------
1994-06-23 12.9 18.4 8.4- 79.0- 8.0 12.7---- 5.7------------
1994-06-22 16.1 21.9 9.6- 79.8- 4.0 6.7---- 0.0------------
1994-06-21 14.8 20.1 7.7- 74.3- 5.0 2.7---- 0.0------------
1994-06-20 13.3 15.9 10.0- 78.3- 5.0 5.3---- 0.0------------
1994-06-19 12.0 14.0 9.4- 95.3- 8.0 3.3---- 2.2------------
1994-06-18 10.7 15.9 4.0- 77.0- 4.0 2.3---- 1.3------------
1994-06-17 9.3 13.9 5.1- 83.8- 6.7 3.3---- 0.0------------
1994-06-16 10.3 15.3 6.4- 85.5- 6.7 3.3---- 6.0------------
577.0 ms

 

Źródłem pochodzenia danych jest Instytut Meteorologii i Gospodarki Wodnej – Państwowy Instytut Badawczy. Dane Instytutu Meteorologii i Gospodarki Wodnej – Państwowego Instytutu Badawczego zostały przetworzone.

Dane źródłowe można odnaleźć na stronie https://dane.imgw.pl